Terminal Aerodrome Forecast
Issued by NWS

Home | Current Version | Previous Version | Text Only | Print | Product List | Glossary On
Versions: 1 2 3 4 5 6 7 8 9 10 11 12 13 14 15 16 17 18 19
000
FTUS43 KGRB 170500
TAFAUW
TAF
KAUW 170520Z 1706/1806 13012G20KT P6SM SCT025 BKN060 WS015/16040KT
      TEMPO 1707/1711 1 1/2SM -SN BKN018
     FM171100 14010G16KT 3SM -SN BKN018
     FM171600 24009G15KT P6SM BKN025
     FM172000 29010G17KT P6SM BKN035
     FM180300 31004KT 4SM BR SCT040=

USA.gov is the U.S. government's official web portal to all federal, state and local government web resources and services.